Time;durP1;ratioP1;P1;durP2;ratioP2;P2;SDS_P1;SDS_P2;PMS_P1;PMS_P2;Temp;Humidity;BMP_temperature;BMP_pressure;BME280_temperature;BME280_humidity;BME280_pressure;Samples;Min_cycle;Max_cycle;Signal;HPM_P1;HPM_P2
2023/09/23 00:02:21;;;;;;;5.70;1.30;;;;;;;17.76;100.00;100035.03;5079597;28;20105;-72
2023/09/23 00:04:47;;;;;;;4.55;1.38;;;;;;;17.62;100.00;100017.53;5063127;28;20053;-72
2023/09/23 00:07:12;;;;;;;3.78;1.15;;;;;;;17.79;100.00;100039.13;5079372;28;20028;-73
2023/09/23 00:09:37;;;;;;;4.80;1.30;;;;;;;17.69;100.00;100033.63;5079558;28;20054;-73
2023/09/23 00:12:03;;;;;;;6.70;1.58;;;;;;;17.76;100.00;100051.38;5079589;28;20112;-73
2023/09/23 00:14:29;;;;;;;5.65;1.25;;;;;;;17.75;100.00;100065.22;5079538;28;20021;-73
2023/09/23 00:16:55;;;;;;;4.38;1.20;;;;;;;17.65;100.00;100057.81;5077981;28;20025;-73
2023/09/23 00:19:20;;;;;;;5.72;1.38;;;;;;;17.73;100.00;100065.47;5073640;28;20020;-73
2023/09/23 00:21:47;;;;;;;6.75;1.73;;;;;;;17.69;100.00;100060.81;5083056;28;20024;-72
2023/09/23 00:24:13;;;;;;;5.80;1.52;;;;;;;17.63;100.00;100054.53;5084157;28;20059;-72
2023/09/23 00:26:39;;;;;;;4.45;1.30;;;;;;;17.69;100.00;100069.00;5065933;28;20028;-72
2023/09/23 00:29:04;;;;;;;3.65;1.40;;;;;;;17.67;100.00;100071.97;5065439;28;20024;-72
2023/09/23 00:31:30;;;;;;;3.85;1.25;;;;;;;17.56;100.00;100051.25;5063541;28;20086;-72
2023/09/23 00:33:55;;;;;;;5.38;1.30;;;;;;;17.63;100.00;100079.03;5084654;28;20032;-73
2023/09/23 00:36:22;;;;;;;2.90;1.52;;;;;;;17.62;100.00;100080.09;5066238;28;20047;-73
2023/09/23 00:38:47;;;;;;;2.80;1.30;;;;;;;17.58;100.00;100079.81;5115609;28;20489;-73
2023/09/23 00:41:13;;;;;;;3.47;1.40;;;;;;;17.53;100.00;100077.06;5081667;28;20039;-72
2023/09/23 00:43:40;;;;;;;5.68;1.50;;;;;;;17.53;100.00;100084.41;5083240;28;20084;-72
2023/09/23 00:46:06;;;;;;;2.75;1.30;;;;;;;17.49;100.00;100080.56;5083896;28;20028;-73
2023/09/23 00:48:39;;;;;;;6.45;1.38;;;;;;;17.45;100.00;100088.44;5083243;28;20019;-72
2023/09/23 00:51:09;;;;;;;2.95;1.30;;;;;;;17.33;100.00;100083.19;5077850;28;20032;-72
2023/09/23 00:53:36;;;;;;;4.88;1.30;;;;;;;17.37;100.00;100097.88;5081924;28;20372;-72
2023/09/23 00:56:03;;;;;;;4.43;1.40;;;;;;;17.31;100.00;100087.25;5083169;28;20084;-73
2023/09/23 00:58:29;;;;;;;2.45;1.20;;;;;;;17.28;100.00;100094.00;5064352;28;20519;-73
2023/09/23 01:00:56;;;;;;;4.30;1.20;;;;;;;17.20;100.00;100090.97;5043751;28;20032;-72
2023/09/23 01:03:22;;;;;;;2.67;1.25;;;;;;;17.28;100.00;100088.56;5057393;28;20040;-73
2023/09/23 01:05:58;;;;;;;3.85;1.42;;;;;;;17.28;100.00;100088.56;5062334;28;20041;-73
2023/09/23 01:08:25;;;;;;;5.82;1.40;;;;;;;17.29;100.00;100084.78;5060048;28;20028;-72
2023/09/23 01:10:52;;;;;;;2.63;1.30;;;;;;;17.26;100.00;100088.03;5066311;28;20131;-73
2023/09/23 01:13:23;;;;;;;3.70;1.30;;;;;;;17.24;100.00;100089.38;5079574;28;20040;-73
2023/09/23 01:15:50;;;;;;;5.85;1.40;;;;;;;17.14;100.00;100079.22;5033717;28;20027;-73
2023/09/23 01:18:15;;;;;;;3.72;1.13;;;;;;;17.09;100.00;100080.03;5080653;28;20036;-72
2023/09/23 01:20:54;;;;;;;2.38;1.50;;;;;;;17.04;100.00;100073.72;5062040;28;20036;-72
2023/09/23 01:23:20;;;;;;;3.38;1.38;;;;;;;17.08;100.00;100093.84;5079615;28;20024;-73
2023/09/23 01:25:45;;;;;;;4.07;1.60;;;;;;;16.99;100.00;100090.81;5078141;28;20056;-72
2023/09/23 01:28:11;;;;;;;5.95;1.80;;;;;;;16.93;100.00;100080.97;5079771;28;20255;-72
2023/09/23 01:30:40;;;;;;;3.35;1.77;;;;;;;17.07;100.00;100097.66;5079639;28;20028;-73
2023/09/23 01:33:07;;;;;;;3.40;1.48;;;;;;;17.04;100.00;100093.56;5078536;28;20033;-73
2023/09/23 01:35:33;;;;;;;4.60;1.80;;;;;;;16.94;100.00;100081.78;5077846;28;20056;-73
2023/09/23 01:38:01;;;;;;;3.97;1.63;;;;;;;16.93;100.00;100093.75;5077819;28;20380;-72
2023/09/23 01:40:29;;;;;;;4.38;1.50;;;;;;;16.82;100.00;100073.78;5078183;28;20058;-73
2023/09/23 01:42:55;;;;;;;4.78;1.70;;;;;;;16.98;100.00;100099.22;5061394;28;20043;-72
2023/09/23 01:45:22;;;;;;;8.80;1.80;;;;;;;16.94;100.00;100104.34;5078790;28;20028;-73
2023/09/23 01:47:49;;;;;;;6.85;1.90;;;;;;;16.93;100.00;100115.50;5078580;28;20023;-73
2023/09/23 01:50:18;;;;;;;8.02;2.00;;;;;;;16.86;100.00;100118.41;5076717;28;20025;-73
2023/09/23 01:52:44;;;;;;;5.05;2.20;;;;;;;16.79;100.00;100115.09;5086305;28;20126;-73
2023/09/23 01:55:12;;;;;;;5.03;2.13;;;;;;;16.66;100.00;100102.72;5074601;28;20048;-72
2023/09/23 01:57:41;;;;;;;5.10;2.20;;;;;;;16.64;100.00;100105.66;5067019;28;20447;-73
2023/09/23 02:00:15;;;;;;;4.65;2.00;;;;;;;16.60;100.00;100114.59;5059003;28;20110;-73
2023/09/23 02:02:40;;;;;;;4.63;2.20;;;;;;;16.67;100.00;100132.31;5077037;28;20024;-72
2023/09/23 02:05:07;;;;;;;4.50;2.15;;;;;;;16.70;100.00;100133.72;5079784;28;20051;-72
2023/09/23 02:07:32;;;;;;;4.95;1.92;;;;;;;16.68;100.00;100133.13;5077016;28;20040;-73
2023/09/23 02:09:58;;;;;;;6.93;1.90;;;;;;;16.68;100.00;100131.22;5060768;28;20046;-72
2023/09/23 02:12:24;;;;;;;4.68;2.22;;;;;;;16.67;100.00;100140.47;5060919;28;20078;-72
2023/09/23 02:14:50;;;;;;;5.03;2.10;;;;;;;16.60;100.00;100148.00;5079266;28;20561;-73
2023/09/23 02:17:16;;;;;;;6.70;1.83;;;;;;;16.48;100.00;100132.91;5079197;28;20096;-72
2023/09/23 02:19:42;;;;;;;6.15;2.17;;;;;;;16.45;100.00;100137.78;5077595;28;20043;-73
2023/09/23 02:22:08;;;;;;;6.55;2.20;;;;;;;16.48;100.00;100141.06;5075167;28;20035;-73
2023/09/23 02:24:36;;;;;;;8.45;2.38;;;;;;;16.49;100.00;100145.41;5076524;28;20060;-73
2023/09/23 02:27:03;;;;;;;8.95;1.90;;;;;;;16.55;100.00;100139.78;5062316;28;20036;-72
2023/09/23 02:29:29;;;;;;;7.10;2.00;;;;;;;16.58;100.00;100138.47;5079681;28;20028;-73
2023/09/23 02:31:55;;;;;;;6.95;2.70;;;;;;;16.58;100.00;100149.31;5067883;28;20043;-73
2023/09/23 02:34:20;;;;;;;9.35;2.00;;;;;;;16.53;100.00;100144.66;5076194;28;20028;-73
2023/09/23 02:36:45;;;;;;;5.03;1.80;;;;;;;16.40;100.00;100143.16;5065611;28;20032;-73
2023/09/23 02:39:20;;;;;;;5.63;2.20;;;;;;;16.44;100.00;100149.72;5040642;28;20033;-73
2023/09/23 02:41:49;;;;;;;;;;;;;;;16.52;100.00;100153.88;5056004;28;20071;-72
2023/09/23 02:44:19;;;;;;;6.57;2.05;;;;;;;16.43;100.00;100145.38;5041891;28;19912;-73
2023/09/23 02:46:49;;;;;;;4.70;2.00;;;;;;;16.57;100.00;100153.94;5095661;28;20025;-72
2023/09/23 02:49:16;;;;;;;8.38;2.20;;;;;;;16.56;100.00;100132.47;5124088;28;20039;-72
2023/09/23 02:51:42;;;;;;;6.72;2.20;;;;;;;16.74;100.00;100151.13;5084506;28;20035;-72
2023/09/23 02:54:09;;;;;;;5.05;2.30;;;;;;;16.79;100.00;100147.69;5077491;28;20055;-73
2023/09/23 02:56:35;;;;;;;5.22;2.10;;;;;;;16.75;100.00;100152.78;5076994;28;20016;-73
2023/09/23 02:59:11;;;;;;;7.72;2.40;;;;;;;16.78;100.00;100152.28;5075805;28;20059;-73
2023/09/23 03:01:45;;;;;;;6.55;2.00;;;;;;;16.80;100.00;100160.19;5091984;28;20031;-73
2023/09/23 03:04:19;;;;;;;3.97;1.80;;;;;;;16.79;100.00;100153.94;5067994;28;20125;-73
2023/09/23 03:06:49;;;;;;;5.82;1.90;;;;;;;16.80;100.00;100155.56;5060916;28;20032;-73
2023/09/23 03:09:31;;;;;;;7.20;2.30;;;;;;;16.94;100.00;100155.16;5060756;28;20033;-73
2023/09/23 03:11:57;;;;;;;3.95;2.40;;;;;;;16.95;100.00;100159.50;5052657;28;20139;-73
2023/09/23 03:14:28;;;;;;;5.60;2.78;;;;;;;17.01;100.00;100164.75;5071395;28;20060;-72
2023/09/23 03:16:57;;;;;;;11.77;3.17;;;;;;;17.05;100.00;100162.31;5081260;28;20028;-72
2023/09/23 03:19:25;;;;;;;7.03;3.03;;;;;;;17.03;100.00;100157.16;5081252;28;20060;-73
2023/09/23 03:21:57;;;;;;;4.90;2.80;;;;;;;17.06;100.00;100153.94;5083660;28;20032;-73
2023/09/23 03:24:26;;;;;;;10.43;2.90;;;;;;;17.10;100.00;100154.22;5081993;28;20033;-73
2023/09/23 03:26:58;;;;;;;5.35;2.83;;;;;;;17.18;100.00;100153.75;5083802;28;20028;-73
2023/09/23 03:29:32;;;;;;;7.20;3.17;;;;;;;17.24;100.00;100151.91;5077089;28;20055;-72
2023/09/23 03:31:59;;;;;;;5.82;2.97;;;;;;;17.26;100.00;100153.28;5083112;28;20409;-73
2023/09/23 03:34:26;;;;;;;8.20;2.92;;;;;;;17.28;100.00;100153.81;5064413;28;20032;-73
2023/09/23 03:36:53;;;;;;;6.43;3.00;;;;;;;17.29;100.00;100147.34;5083560;28;20025;-72
2023/09/23 03:39:19;;;;;;;7.25;3.00;;;;;;;17.29;100.00;100149.25;5065498;28;20088;-72
2023/09/23 03:41:46;;;;;;;8.65;3.22;;;;;;;17.12;100.00;100135.78;5083338;28;20044;-73
2023/09/23 03:44:16;;;;;;;7.88;3.20;;;;;;;17.18;100.00;100158.38;5052564;28;20040;-72
2023/09/23 03:46:50;;;;;;;8.52;2.90;;;;;;;17.21;100.00;100160.56;5068425;28;20040;-72
2023/09/23 03:49:19;;;;;;;5.53;3.08;;;;;;;17.24;100.00;100147.28;5062578;28;20083;-72
2023/09/23 03:51:44;;;;;;;5.25;2.90;;;;;;;17.27;100.00;100154.09;5063293;28;20037;-72
2023/09/23 03:54:11;;;;;;;6.78;3.22;;;;;;;17.27;100.00;100148.66;5066451;28;20054;-72
2023/09/23 03:56:41;;;;;;;9.40;3.13;;;;;;;17.31;100.00;100149.78;5049364;28;20078;-72
2023/09/23 03:59:06;;;;;;;9.65;3.17;;;;;;;17.21;100.00;100147.78;5063463;28;20066;-72
2023/09/23 04:01:33;;;;;;;7.03;3.33;;;;;;;17.23;100.00;100148.38;5046472;28;20522;-72
2023/09/23 04:03:59;;;;;;;8.40;3.53;;;;;;;17.09;100.00;100122.69;5082653;28;20502;-73
2023/09/23 04:06:25;;;;;;;7.25;3.83;;;;;;;17.27;100.00;100154.09;5064878;28;20031;-72
2023/09/23 04:08:51;;;;;;;8.38;4.00;;;;;;;17.25;100.00;100148.09;5082602;28;20081;-73
2023/09/23 04:11:17;;;;;;;5.45;3.45;;;;;;;17.27;100.00;100171.22;5062440;28;20055;-72
2023/09/23 04:13:45;;;;;;;9.90;4.18;;;;;;;17.22;100.00;100164.91;5061988;28;20062;-72
2023/09/23 04:16:11;;;;;;;9.25;4.32;;;;;;;17.32;100.00;100160.41;5064684;28;20042;-72
2023/09/23 04:18:37;;;;;;;6.70;3.90;;;;;;;17.28;100.00;100144.84;5082530;28;20039;-72
2023/09/23 04:21:05;;;;;;;6.93;3.83;;;;;;;17.23;100.00;100134.78;5064388;28;20037;-72
2023/09/23 04:23:30;;;;;;;8.30;3.88;;;;;;;17.31;100.00;100147.06;5065884;28;20462;-72
2023/09/23 04:25:56;;;;;;;9.55;4.47;;;;;;;17.40;100.00;100161.81;5047861;28;20132;-73
2023/09/23 04:28:25;;;;;;;6.75;4.18;;;;;;;17.27;100.00;100143.22;5063318;28;20105;-73
2023/09/23 04:30:54;;;;;;;8.68;3.80;;;;;;;17.29;100.00;100163.66;5081188;28;20034;-72
2023/09/23 04:33:20;;;;;;;7.10;3.55;;;;;;;17.17;100.00;100173.06;5063387;28;20024;-73
2023/09/23 04:35:46;;;;;;;8.23;3.80;;;;;;;17.31;100.00;100169.63;5030775;28;20309;-72
2023/09/23 04:38:11;;;;;;;7.68;3.90;;;;;;;17.33;100.00;100177.53;5081197;28;20039;-73
2023/09/23 04:40:37;;;;;;;7.00;3.25;;;;;;;17.34;100.00;100181.91;5081228;28;20032;-73
2023/09/23 04:43:03;;;;;;;9.13;3.92;;;;;;;17.33;100.00;100181.06;5081105;28;20429;-72
2023/09/23 04:45:28;;;;;;;5.60;3.50;;;;;;;16.97;100.00;100125.56;5063393;28;20059;-72
2023/09/23 04:47:54;;;;;;;6.72;3.90;;;;;;;17.28;100.00;100174.75;5063366;28;20131;-72
2023/09/23 04:50:23;;;;;;;6.90;4.03;;;;;;;17.32;100.00;100184.06;5044986;28;20047;-73
2023/09/23 04:52:50;;;;;;;6.95;3.25;;;;;;;17.35;100.00;100200.69;5046788;28;20495;-73
2023/09/23 04:55:16;;;;;;;6.90;3.40;;;;;;;17.34;100.00;100200.94;5047521;28;20351;-73
2023/09/23 04:57:41;;;;;;;7.45;3.53;;;;;;;17.28;100.00;100200.06;5047759;28;20035;-73
2023/09/23 05:00:09;;;;;;;8.63;3.53;;;;;;;17.14;100.00;100199.66;5081521;28;20032;-73
2023/09/23 05:02:37;;;;;;;9.23;3.75;;;;;;;17.27;100.00;100208.47;5047585;28;20035;-73
2023/09/23 05:05:03;;;;;;;7.45;3.47;;;;;;;17.33;100.00;100219.16;5064873;28;20040;-73
2023/09/23 05:07:29;;;;;;;8.25;3.47;;;;;;;17.33;100.00;100213.72;5059477;28;20044;-72
2023/09/23 05:09:57;;;;;;;8.05;3.67;;;;;;;17.35;100.00;100208.84;5045000;28;20123;-73
2023/09/23 05:12:24;;;;;;;6.97;3.53;;;;;;;17.37;100.00;100216.72;5047668;28;20020;-73
2023/09/23 05:14:49;;;;;;;9.13;3.05;;;;;;;17.38;100.00;100219.22;5063964;28;20020;-73
2023/09/23 05:17:15;;;;;;;8.15;3.33;;;;;;;17.41;100.00;100225.19;5064320;28;20032;-73
2023/09/23 05:19:47;;;;;;;8.40;3.55;;;;;;;17.44;100.00;100221.97;5080411;28;20376;-73
2023/09/23 05:22:12;;;;;;;5.97;3.58;;;;;;;17.40;100.00;100218.13;5060604;28;20039;-72
2023/09/23 05:24:39;;;;;;;7.47;3.40;;;;;;;17.49;100.00;100230.19;5073691;28;20036;-72
2023/09/23 05:27:05;;;;;;;11.55;3.55;;;;;;;17.39;100.00;100206.44;5062070;28;20129;-75
2023/09/23 05:29:30;;;;;;;8.25;3.40;;;;;;;17.48;100.00;100223.06;5063373;28;20036;-75
2023/09/23 05:31:56;;;;;;;7.38;3.38;;;;;;;17.52;100.00;100232.38;5080513;28;20031;-75
2023/09/23 05:34:21;;;;;;;3.85;3.00;;;;;;;17.55;100.00;100232.69;5063688;28;20029;-72
2023/09/23 05:36:47;;;;;;;5.63;3.65;;;;;;;17.51;100.00;100217.13;5081064;28;20052;-73
2023/09/23 05:39:15;;;;;;;6.07;3.10;;;;;;;17.52;100.00;100197.84;5081690;28;20024;-71
2023/09/23 05:41:40;;;;;;;5.95;2.92;;;;;;;17.73;100.00;100231.44;5062338;28;20020;-71
2023/09/23 05:44:07;;;;;;;6.25;2.78;;;;;;;17.73;100.00;100214.31;5085056;28;20028;-74
2023/09/23 05:46:34;;;;;;;8.95;3.03;;;;;;;17.92;100.00;100225.63;5069606;28;20468;-72
2023/09/23 05:49:02;;;;;;;6.20;2.63;;;;;;;18.04;100.00;100228.97;5086683;28;20176;-73
2023/09/23 05:51:27;;;;;;;5.85;2.92;;;;;;;18.13;100.00;100224.66;5069565;28;20120;-76
2023/09/23 05:53:53;;;;;;;7.05;2.97;;;;;;;18.20;100.00;100208.91;5086376;28;20024;-74
2023/09/23 05:56:18;;;;;;;6.40;2.90;;;;;;;18.39;100.00;100224.81;5087225;28;20015;-73
2023/09/23 05:58:45;;;;;;;6.75;2.92;;;;;;;18.49;100.00;100220.22;5067496;28;20029;-72
2023/09/23 06:01:12;;;;;;;5.68;2.83;;;;;;;18.68;100.00;100233.41;5056731;28;20040;-72
2023/09/23 06:03:38;;;;;;;6.72;2.40;;;;;;;18.82;100.00;100242.75;5068336;28;20104;-74
2023/09/23 06:06:03;;;;;;;6.57;2.60;;;;;;;18.90;100.00;100244.13;5070762;28;20077;-75
2023/09/23 06:08:29;;;;;;;6.40;2.70;;;;;;;18.96;100.00;100249.31;5084113;28;20032;-71
2023/09/23 06:11:00;;;;;;;6.18;2.50;;;;;;;19.02;100.00;100253.69;5084109;28;20029;-73
2023/09/23 06:13:26;;;;;;;7.07;2.40;;;;;;;19.04;100.00;100255.31;5118861;28;20039;-74
2023/09/23 06:15:52;;;;;;;4.70;2.45;;;;;;;19.04;100.00;100260.78;5082922;28;20612;-71
2023/09/23 06:18:18;;;;;;;6.03;2.40;;;;;;;19.00;100.00;100266.78;5083988;28;20039;-72
2023/09/23 06:20:44;;;;;;;5.00;2.30;;;;;;;18.96;100.00;100265.69;5079685;28;20025;-71
2023/09/23 06:23:10;;;;;;;3.92;1.90;;;;;;;18.92;100.00;100266.50;5080604;28;20028;-72
2023/09/23 06:25:35;;;;;;;4.53;1.65;;;;;;;18.86;100.00;100264.81;5063822;28;20476;-70
2023/09/23 06:28:01;;;;;;;5.22;2.00;;;;;;;18.73;100.00;100257.97;5063809;28;20040;-71
2023/09/23 06:30:26;;;;;;;6.65;2.10;;;;;;;18.74;100.00;100265.88;5080768;28;20041;-71
2023/09/23 06:32:52;;;;;;;8.50;2.00;;;;;;;18.75;100.00;100272.97;5063538;28;20090;-71
2023/09/23 06:35:19;;;;;;;5.85;1.90;;;;;;;18.69;100.00;100260.38;5052479;28;20024;-71
2023/09/23 06:37:45;;;;;;;9.38;1.70;;;;;;;18.61;100.00;100251.88;5066784;28;20078;-71
2023/09/23 06:40:10;;;;;;;6.97;1.85;;;;;;;18.71;100.00;100271.84;5062628;28;20055;-71
2023/09/23 06:42:36;;;;;;;5.78;2.05;;;;;;;18.72;100.00;100280.88;5044002;28;20042;-71
2023/09/23 06:45:06;;;;;;;6.43;2.28;;;;;;;18.70;100.00;100278.34;5078412;28;20035;-71
2023/09/23 06:47:31;;;;;;;11.48;2.58;;;;;;;18.65;100.00;100281.06;5064626;28;20119;-72
2023/09/23 06:49:56;;;;;;;6.45;2.05;;;;;;;18.59;100.00;100289.50;5089090;28;20032;-72
2023/09/23 06:52:22;;;;;;;6.75;2.10;;;;;;;18.56;100.00;100285.38;5074022;28;20551;-71
2023/09/23 06:54:47;;;;;;;5.93;2.13;;;;;;;18.52;100.00;100290.53;5081815;28;20044;-71
2023/09/23 06:57:13;;;;;;;7.90;2.15;;;;;;;18.48;100.00;100288.63;5058654;28;20035;-71
2023/09/23 06:59:38;;;;;;;6.03;2.75;;;;;;;18.47;100.00;100295.13;5040158;28;20060;-72
2023/09/23 07:02:04;;;;;;;6.88;2.35;;;;;;;18.48;100.00;100291.34;5077114;28;20024;-71
2023/09/23 07:04:29;;;;;;;7.28;2.00;;;;;;;18.30;100.00;100274.34;5058796;28;20136;-71
2023/09/23 07:06:55;;;;;;;7.13;2.13;;;;;;;18.38;100.00;100289.38;5039192;28;20107;-71
2023/09/23 07:09:20;;;;;;;7.82;2.20;;;;;;;18.36;100.00;100288.00;5072204;28;20029;-71
2023/09/23 07:11:46;;;;;;;7.75;2.20;;;;;;;18.35;100.00;100297.25;5055332;28;20047;-71
2023/09/23 07:14:11;;;;;;;7.97;2.50;;;;;;;18.33;100.00;100297.50;5055978;28;20032;-72
2023/09/23 07:16:37;;;;;;;5.75;2.25;;;;;;;18.30;100.00;100296.13;5056795;28;20262;-71
2023/09/23 07:19:02;;;;;;;4.78;2.13;;;;;;;18.31;100.00;100310.59;5056729;28;20036;-71
2023/09/23 07:21:29;;;;;;;5.32;2.10;;;;;;;18.28;100.00;100303.75;5058546;28;20047;-72
2023/09/23 07:23:54;;;;;;;5.90;2.08;;;;;;;18.23;100.00;100309.16;5077034;28;20025;-72
2023/09/23 07:26:21;;;;;;;5.07;1.50;;;;;;;18.28;100.00;100308.38;5076995;28;20033;-71
2023/09/23 07:28:47;;;;;;;4.15;1.60;;;;;;;18.31;100.00;100316.03;5059112;28;20500;-71
2023/09/23 07:31:12;;;;;;;4.05;1.52;;;;;;;18.31;100.00;100297.78;5077177;28;20143;-71
2023/09/23 07:33:38;;;;;;;4.15;1.50;;;;;;;18.65;100.00;100321.94;5059105;28;20028;-71
2023/09/23 07:36:14;;;;;;;4.80;1.67;;;;;;;18.86;100.00;100305.72;5058605;28;20434;-71
2023/09/23 07:38:40;;;;;;;6.20;1.60;;;;;;;19.12;100.00;100328.44;5059282;28;20055;-71
2023/09/23 07:41:06;;;;;;;6.45;1.63;;;;;;;19.19;100.00;100329.03;5058998;28;20055;-71
2023/09/23 07:43:32;;;;;;;5.90;1.60;;;;;;;18.94;100.00;100336.03;5077071;28;20055;-71
2023/09/23 07:45:58;;;;;;;6.45;1.50;;;;;;;18.78;100.00;100340.59;5060521;28;20063;-72
2023/09/23 07:48:23;;;;;;;5.22;1.75;;;;;;;18.60;100.00;100337.44;5078250;28;20033;-71
2023/09/23 07:50:48;;;;;;;6.47;1.15;;;;;;;18.57;100.00;100329.78;5044455;28;20025;-72
2023/09/23 07:53:14;;;;;;;3.83;1.10;;;;;;;18.67;100.00;100327.13;5075869;28;20471;-72
2023/09/23 07:55:41;;;;;;;4.00;1.00;;;;;;;18.72;100.00;100311.66;5072684;28;20104;-72
2023/09/23 07:58:06;;;;;;;3.53;0.88;;;;;;;18.71;100.00;100315.44;5046668;28;20043;-72
2023/09/23 08:00:32;;;;;;;6.15;1.13;;;;;;;18.73;100.00;100320.66;5062782;28;20036;-72
2023/09/23 08:02:57;;;;;;;4.25;1.02;;;;;;;18.74;100.00;100317.66;5062957;28;20036;-71
2023/09/23 08:05:23;;;;;;;6.80;1.15;;;;;;;18.60;100.00;100319.19;5080740;28;20304;-72
2023/09/23 08:07:51;;;;;;;4.38;1.40;;;;;;;18.61;100.00;100334.47;5062789;28;20032;-72
2023/09/23 08:10:17;;;;;;;4.90;1.42;;;;;;;18.67;100.00;100338.84;5046839;28;20051;-71
2023/09/23 08:12:43;;;;;;;5.30;1.30;;;;;;;18.74;100.00;100325.84;5079927;28;20025;-71
2023/09/23 08:15:09;;;;;;;7.38;1.27;;;;;;;18.83;100.00;100326.16;5028949;28;20046;-71
2023/09/23 08:17:34;;;;;;;7.72;1.80;;;;;;;18.94;100.00;100341.47;5046919;28;20035;-72
2023/09/23 08:20:07;;;;;;;8.55;2.10;;;;;;;18.74;100.00;100339.47;5028703;28;20505;-71
2023/09/23 08:22:36;;;;;;;8.32;1.70;;;;;;;18.73;100.00;100332.38;5047648;28;20170;-72
2023/09/23 08:25:02;;;;;;;9.00;1.92;;;;;;;18.60;100.00;100332.81;5080288;28;20056;-72
2023/09/23 08:27:27;;;;;;;9.10;1.90;;;;;;;18.66;100.00;100342.66;5046308;28;20036;-72
2023/09/23 08:29:53;;;;;;;9.57;1.77;;;;;;;18.64;100.00;100341.28;5063547;28;20663;-71
2023/09/23 08:32:19;;;;;;;9.32;1.58;;;;;;;18.60;100.00;100332.81;5081228;28;20125;-71
2023/09/23 08:34:44;;;;;;;14.55;2.00;;;;;;;18.76;100.00;100350.09;5063911;28;20094;-71
2023/09/23 08:37:09;;;;;;;5.88;1.58;;;;;;;18.71;100.00;100353.59;5081006;28;20108;-71
2023/09/23 08:39:35;;;;;;;9.27;1.67;;;;;;;18.67;100.00;100355.19;5062481;28;20037;-71
2023/09/23 08:42:04;;;;;;;10.77;1.88;;;;;;;18.68;100.00;100361.50;5062989;28;20490;-71
2023/09/23 08:44:33;;;;;;;9.05;1.92;;;;;;;18.75;100.00;100362.09;5081580;28;20031;-71
2023/09/23 08:46:59;;;;;;;10.00;1.60;;;;;;;18.71;100.00;100341.88;5063092;28;20505;-71
2023/09/23 08:49:26;;;;;;;10.80;2.42;;;;;;;18.96;100.00;100366.56;5081247;28;20096;-71
2023/09/23 08:51:55;;;;;;;9.38;1.60;;;;;;;19.01;100.00;100376.69;5062549;28;20033;-71
2023/09/23 08:54:25;;;;;;;8.70;1.45;;;;;;;19.06;100.00;100368.50;5060474;28;20056;-70
2023/09/23 08:56:52;;;;;;;7.00;1.35;;;;;;;19.06;100.00;100373.97;5075322;28;20550;-71
2023/09/23 08:59:18;;;;;;;5.70;1.50;;;;;;;18.98;100.00;100374.50;5077280;28;20028;-71
2023/09/23 09:01:44;;;;;;;6.38;1.35;;;;;;;19.01;100.00;100376.69;5078656;28;20127;-70
2023/09/23 09:04:14;;;;;;;5.70;1.30;;;;;;;19.06;100.00;100373.16;5079704;28;20040;-71
2023/09/23 09:06:54;;;;;;;7.05;1.40;;;;;;;19.08;100.00;100371.81;5028132;28;20028;-71
2023/09/23 09:09:19;;;;;;;6.25;1.60;;;;;;;18.98;100.00;100372.56;5060323;28;20032;-71
2023/09/23 09:11:51;;;;;;;7.15;1.13;;;;;;;18.91;100.00;100368.47;5061771;28;20055;-72
2023/09/23 09:14:17;;;;;;;5.13;1.00;;;;;;;18.92;100.00;100360.00;5061319;28;20024;-72
2023/09/23 09:16:43;;;;;;;9.43;1.58;;;;;;;18.83;100.00;100352.59;5056957;28;20107;-71
2023/09/23 09:19:08;;;;;;;6.72;1.60;;;;;;;18.89;100.00;100357.81;5056224;28;20044;-71
2023/09/23 09:21:34;;;;;;;8.68;1.60;;;;;;;18.92;100.00;100354.53;5078892;28;20032;-71
2023/09/23 09:24:01;;;;;;;7.40;1.77;;;;;;;18.84;100.00;100356.94;5079167;28;20029;-71
2023/09/23 09:26:26;;;;;;;5.70;1.05;;;;;;;18.69;100.00;100368.56;5078362;28;20036;-71
2023/09/23 09:28:51;;;;;;;8.00;1.70;;;;;;;18.25;100.00;100311.63;5078324;28;20032;-71
2023/09/23 09:31:18;;;;;;;6.32;1.90;;;;;;;18.43;100.00;100354.78;5060222;28;20098;-71
2023/09/23 09:33:47;;;;;;;12.60;2.60;;;;;;;18.45;100.00;100379.06;5059643;28;20124;-71
2023/09/23 09:36:19;;;;;;;10.45;2.92;;;;;;;18.53;100.00;100386.72;5060303;28;20027;-71
2023/09/23 09:38:53;;;;;;;11.70;2.88;;;;;;;18.55;100.00;100390.00;5060358;28;20111;-71
2023/09/23 09:41:31;;;;;;;5.95;1.52;;;;;;;18.66;100.00;100394.44;5077824;28;20029;-70
2023/09/23 09:44:00;;;;;;;6.28;1.70;;;;;;;18.66;100.00;100386.25;5057170;28;20028;-71
2023/09/23 09:46:29;;;;;;;9.07;2.30;;;;;;;18.83;100.00;100386.13;5042592;28;20035;-71
2023/09/23 09:48:57;;;;;;;8.18;1.95;;;;;;;19.10;100.00;100388.69;5059986;28;20092;-71
2023/09/23 09:51:23;;;;;;;6.55;1.65;;;;;;;19.09;100.00;100361.72;5061712;28;20021;-71
2023/09/23 09:53:50;;;;;;;7.22;1.42;;;;;;;19.27;100.00;100385.81;5078723;28;20033;-71
2023/09/23 09:56:17;;;;;;;5.85;1.25;;;;;;;19.43;100.00;100390.19;5079269;28;20029;-71
2023/09/23 09:58:42;;;;;;;5.72;1.20;;;;;;;19.51;100.00;100391.59;5061193;28;20043;-71
2023/09/23 10:01:12;;;;;;;7.45;1.30;;;;;;;19.32;100.00;100374.06;5094984;28;20032;-71
2023/09/23 10:03:40;;;;;;;4.03;1.08;;;;;;;19.35;100.00;100392.63;5072697;28;20036;-71
2023/09/23 10:06:07;;;;;;;5.07;1.38;;;;;;;19.20;100.00;100391.50;5091842;28;20067;-70
2023/09/23 10:08:38;;;;;;;4.00;1.25;;;;;;;19.18;100.00;100388.22;5071017;28;20062;-70
2023/09/23 10:11:08;;;;;;;4.60;1.40;;;;;;;19.22;100.00;100400.22;5060674;28;20033;-70
2023/09/23 10:13:34;;;;;;;5.10;1.30;;;;;;;19.19;100.00;100400.75;5075513;28;20025;-70
2023/09/23 10:16:06;;;;;;;5.00;1.48;;;;;;;19.15;100.00;100410.56;5078206;28;20410;-71
2023/09/23 10:18:42;;;;;;;5.38;1.20;;;;;;;19.17;100.00;100413.84;5062952;28;20027;-71
2023/09/23 10:21:21;;;;;;;3.67;1.27;;;;;;;19.02;100.00;100422.75;5061605;28;20035;-71
2023/09/23 10:23:46;;;;;;;6.75;1.33;;;;;;;19.03;100.00;100429.03;5059951;28;20036;-71
2023/09/23 10:26:20;;;;;;;5.93;1.42;;;;;;;18.97;100.00;100427.34;5059412;28;20040;-70
2023/09/23 10:29:01;;;;;;;6.40;1.25;;;;;;;18.95;100.00;100432.28;5075221;28;20502;-70
2023/09/23 10:31:29;;;;;;;5.60;1.10;;;;;;;18.92;100.00;100427.34;5054628;28;20055;-71
2023/09/23 10:33:55;;;;;;;4.88;1.60;;;;;;;18.81;100.00;100436.53;5056150;28;20438;-71
2023/09/23 10:36:22;;;;;;;4.90;1.52;;;;;;;18.66;100.00;100434.50;5057822;28;20051;-72
2023/09/23 10:38:48;;;;;;;4.50;1.35;;;;;;;18.61;100.00;100438.03;5058721;28;20403;-72
2023/09/23 10:41:13;;;;;;;5.18;1.20;;;;;;;18.52;100.00;100429.50;5059980;28;20036;-71
2023/09/23 10:43:39;;;;;;;3.70;0.88;;;;;;;18.51;100.00;100436.03;5077542;28;20037;-71
2023/09/23 10:46:05;;;;;;;3.40;0.82;;;;;;;18.37;100.00;100420.38;5076330;28;20033;-72
2023/09/23 10:48:34;;;;;;;5.50;1.00;;;;;;;18.54;100.00;100440.13;5059026;28;20021;-71
2023/09/23 10:51:01;;;;;;;4.95;1.10;;;;;;;18.66;100.00;100442.69;5057459;28;20024;-71
2023/09/23 10:53:30;;;;;;;5.63;1.13;;;;;;;18.57;100.00;100423.25;5056001;28;20384;-71
2023/09/23 10:55:55;;;;;;;7.28;1.23;;;;;;;18.67;100.00;100438.84;5042427;28;20048;-71
2023/09/23 10:58:21;;;;;;;4.30;0.90;;;;;;;18.92;100.00;100449.97;5077039;28;20032;-71
2023/09/23 11:00:48;;;;;;;3.90;0.82;;;;;;;18.77;100.00;100437.06;5058805;28;20261;-71
2023/09/23 11:03:19;;;;;;;4.90;1.13;;;;;;;18.91;100.00;100442.06;5076828;28;20036;-71
2023/09/23 11:05:47;;;;;;;2.08;0.75;;;;;;;19.13;100.00;100448.19;5076309;28;20048;-71
2023/09/23 11:08:14;;;;;;;3.83;1.02;;;;;;;19.09;100.00;100455.25;5087936;28;20143;-71
2023/09/23 11:10:41;;;;;;;4.72;1.25;;;;;;;19.23;100.00;100448.22;5039723;28;20043;-70
2023/09/23 11:13:10;;;;;;;6.28;1.10;;;;;;;19.38;100.00;100446.69;5076948;28;20085;-71
2023/09/23 11:15:41;;;;;;;5.50;1.30;;;;;;;19.52;100.00;100456.00;5058039;28;20032;-71
2023/09/23 11:18:08;;;;;;;5.05;1.17;;;;;;;19.65;100.00;100454.72;5074624;28;20028;-71